Weather at Baltimore/Washington International Thurgood Marshall Airport

Public forecast

Using degrees Fahrenheit for public forecast. Weather courtesy of forecast.io.

Current aviation weather report (METAR) for Baltimore/Washington International Thurgood Marshall Airport

Retrieved 2021/01/28 05:54 UTC (56 minutes ago):

KBWI 280554Z 03009KT 10SM OVC035 01/M06 A3009 RMK AO2 SLP191 T00111061 10033 20011 55015

Aviation forecast (TAF) for Baltimore/Washington International Thurgood Marshall Airport

Retrieved 2021/01/28 06:51 UTC (0 seconds ago):

TAF KBWI 280548Z 2806/2912 01005KT P6SM SCT040 OVC060 FM281000 34009KT P6SM SCT060 OVC100 FM281100 34010G24KT P6SM SCT090 OVC100 FM281600 34015G34KT P6SM FEW200 SCT250 FM290600 31009KT P6SM FEW040 FEW250 FM291000 31010G24KT P6SM FEW250